Hebe — A8OH7 — position and weather

sailwx.info

Track history (hours):
 
Tides and Currents Weather Stations Pressure Air Temp Water Temp Dewpoint Dewpoint Depression Visibility Wind Speed Wind Dir Waves Ship Positions

Hebe

Last reported at 2015-May-24 00:24 UTC. Time now 2015-May-25 07:33 UTC.
Position N 01°38' E 102°59'.

Length 220 m; draft 9.8 m.

Type: Ship. MMSI: 636091480.

Date/timePositionNaut miles runAvg speedWind from/ knotsBaromVisibWave heightAir tempDewpointWater temp
2015-May-24 00:24N 01°38' E 102°59'2711.6
2015-May-23 22:07N 01°20' E 103°19'711.5
2015-May-23 21:30N 01°15' E 103°24'9 8.4
2015-May-23 20:24N 01°18' E 103°33'8 0.2
2015-May-22 02:14N 01°12' E 103°39'8 8.7
2015-May-22 01:22N 01°16' E 103°46'0 0.1
2015-May-22 00:25N 01°16' E 103°46'0 0.0
2015-May-21 23:30N 01°16' E 103°46'0 0.0
2015-May-21 22:21N 01°16' E 103°46'0 0.0
2015-May-21 21:33N 01°16' E 103°46'0 0.0
2015-May-21 19:29N 01°16' E 103°46'0 0.0
2015-May-21 18:28N 01°16' E 103°46'0 0.0
2015-May-21 17:25N 01°16' E 103°46'0 0.0
2015-May-21 16:30N 01°16' E 103°46'0 0.0
2015-May-21 15:33N 01°16' E 103°46'0 0.0
2015-May-21 14:33N 01°16' E 103°46'0 0.0
2015-May-21 13:26N 01°16' E 103°46'0 0.0
2015-May-21 12:32N 01°16' E 103°46'0 0.0
2015-May-21 10:19N 01°16' E 103°46'0 0.0
2015-May-21 09:18N 01°16' E 103°46'0 0.0
2015-May-21 03:10N 01°16' E 103°46'0 0.0
2015-May-21 02:09N 01°16' E 103°46'0 0.0
2015-May-21 00:33N 01°16' E 103°46'0 0.0
2015-May-20 23:17N 01°16' E 103°46'0 0.0
2015-May-20 22:32N 01°16' E 103°46'0 0.0
2015-May-20 21:19N 01°16' E 103°46'0 0.0
2015-May-20 20:25N 01°16' E 103°46'0 0.0
2015-May-20 18:24N 01°16' E 103°46'0 0.0
2015-May-20 17:27N 01°16' E 103°46'3 3.2
2015-May-20 16:33N 01°15' E 103°44'6512.9
2015-May-20 11:33N 01°40' E 102°44'1717.4
2015-May-20 10:33N 01°47' E 102°29'1817.1
2015-May-20 09:31N 01°55' E 102°13'  
2015-May-16 06:26N 02°02' E 102°10'1011.8
2015-May-16 05:33N 01°56' E 102°18'1211.9
2015-May-16 04:33N 01°51' E 102°29'1212.1
2015-May-16 03:33N 01°46' E 102°40'1212.4
2015-May-16 02:33N 01°41' E 102°51'2610.8
2015-May-16 00:07N 01°26' E 103°13'610.5
2015-May-15 23:32N 01°22' E 103°17'25 0.6
2015-May-14 07:33N 01°13' E 103°40'7 6.8
2015-May-14 06:33N 01°16' E 103°46'0 0.0
2015-May-14 05:27N 01°16' E 103°46'0 0.0
2015-May-14 03:08N 01°16' E 103°46'0 0.0
2015-May-14 02:19N 01°16' E 103°46'0 0.0
2015-May-14 01:19N 01°16' E 103°46'0 0.0
2015-May-14 00:31N 01°16' E 103°46'  
Track history (hours):
 
Tides and Currents Weather Stations Pressure Air Temp Water Temp Dewpoint Dewpoint Depression Visibility Wind Speed Wind Dir Waves Ship Positions

Hebe

Last reported at 2015-May-24 00:24 UTC. Time now 2015-May-25 07:33 UTC.
Position N 01°38' E 102°59'.

Length 220 m; draft 9.8 m.

Type: Ship. MMSI: 636091480.

Date/timePositionNaut miles runAvg speedWind from/ knotsBaromVisibWave heightAir tempDewpointWater temp
2015-May-24 00:24N 01°38' E 102°59'2711.6
2015-May-23 22:07N 01°20' E 103°19'711.5
2015-May-23 21:30N 01°15' E 103°24'9 8.4
2015-May-23 20:24N 01°18' E 103°33'8 0.2
2015-May-22 02:14N 01°12' E 103°39'8 8.7
2015-May-22 01:22N 01°16' E 103°46'0 0.1
2015-May-22 00:25N 01°16' E 103°46'0 0.0
2015-May-21 23:30N 01°16' E 103°46'0 0.0
2015-May-21 22:21N 01°16' E 103°46'0 0.0
2015-May-21 21:33N 01°16' E 103°46'0 0.0
2015-May-21 19:29N 01°16' E 103°46'0 0.0
2015-May-21 18:28N 01°16' E 103°46'0 0.0
2015-May-21 17:25N 01°16' E 103°46'0 0.0
2015-May-21 16:30N 01°16' E 103°46'0 0.0
2015-May-21 15:33N 01°16' E 103°46'0 0.0
2015-May-21 14:33N 01°16' E 103°46'0 0.0
2015-May-21 13:26N 01°16' E 103°46'0 0.0
2015-May-21 12:32N 01°16' E 103°46'0 0.0
2015-May-21 10:19N 01°16' E 103°46'0 0.0
2015-May-21 09:18N 01°16' E 103°46'0 0.0
2015-May-21 03:10N 01°16' E 103°46'0 0.0
2015-May-21 02:09N 01°16' E 103°46'0 0.0
2015-May-21 00:33N 01°16' E 103°46'0 0.0
2015-May-20 23:17N 01°16' E 103°46'0 0.0
2015-May-20 22:32N 01°16' E 103°46'0 0.0
2015-May-20 21:19N 01°16' E 103°46'0 0.0
2015-May-20 20:25N 01°16' E 103°46'0 0.0
2015-May-20 18:24N 01°16' E 103°46'0 0.0
2015-May-20 17:27N 01°16' E 103°46'3 3.2
2015-May-20 16:33N 01°15' E 103°44'6512.9
2015-May-20 11:33N 01°40' E 102°44'1717.4
2015-May-20 10:33N 01°47' E 102°29'1817.1
2015-May-20 09:31N 01°55' E 102°13'  
2015-May-16 06:26N 02°02' E 102°10'1011.8
2015-May-16 05:33N 01°56' E 102°18'1211.9
2015-May-16 04:33N 01°51' E 102°29'1212.1
2015-May-16 03:33N 01°46' E 102°40'1212.4
2015-May-16 02:33N 01°41' E 102°51'2610.8
2015-May-16 00:07N 01°26' E 103°13'610.5
2015-May-15 23:32N 01°22' E 103°17'25 0.6
2015-May-14 07:33N 01°13' E 103°40'7 6.8
2015-May-14 06:33N 01°16' E 103°46'0 0.0
2015-May-14 05:27N 01°16' E 103°46'0 0.0
2015-May-14 03:08N 01°16' E 103°46'0 0.0
2015-May-14 02:19N 01°16' E 103°46'0 0.0
2015-May-14 01:19N 01°16' E 103°46'0 0.0
2015-May-14 00:31N 01°16' E 103°46'  

Dump ship's entire track history